Scroll down
FLIGHT INFORMATION
Federal Express (FedEx)

FDX21

At Arrival Gate

VHHH
 OMDB
DATE: 2022-07-01
GATE: 
GATE DEPARTURE: 22:27
TAKEOFF: 22:42
DATE: 2022-07-02
GATE:  -
LANDING: 05:58
GATE ARRIVAL: 06:04
FLIGHT DATA
Crew: 
Speed: 
523 kts
Altitude: 
34,129 ft
Stage Length: 
3,196.4 nm
Block Time: 
7.6 hrs
Flight Time: 
7.3 hrs
Fuel Used: 
133,039 lb
Cleared Route: VHHH PECAN LAXET SURFA IDOSI IKELA LENKO BUNTA BINKU KANGU DAN PATNO TANNA PAPRA BUTRA BAMBO UBL GRASO RAMBU RAMEI KRT UBLOD MALKI BKK PASTO TANEK DWI SADUS RINDA MABUR LEBIS URKOK DOGEM OLSOR POTAS VVZ MEPOK MEPIP BUSBO IBELA MELAX OPAKA KAMOL EXOLU KARKU ANKOX RASKI VAXIM RAGMA VUSET UMEKO BORER PASOV KUPMA ORKOB MIVEK IMPED OMDB
TRACK DATA
50,000 ft 1,000 kts
AIRCRAFT INFO AND CUMULATIVE STATS
Aircraft Type: 
B77LF
Registration: 
SELCAL: 
MSN/LN: 
40683 / 1546
Total Flights: 
1
Total Block Time: 
7.6 hrs
Total Flight Time: 
7.3 hrs
Total Fuel Used: 
133,039 lb
DATALINK LOG | Newest first | Current as of: 2022-08-16 07:39:28
LABEL SEQUENCE CONTENT Dn/Up
QD353906:04 18.8▼ Dn
QC303405:58▼ Dn
2U5000OMDB 011900Z 04003KT 350V110 CAVOK 36/25 Q0994 NOSIG▲ Up
2S4959OMDB▼ Dn
QB134822:42▼ Dn
QA583322:27 151.9▼ Dn
2U4420OMSJ 011200Z 32010KT CAVOK 38/25 Q0993 NOSIG▲ Up
2U4419OMDB 011200Z 34013KT CAVOK 37/27 Q0992 NOSIG▲ Up
2U4419VHHH 011230Z 09022KT 9999 FEW018 SCT030 28/24 Q0999 TEMPO 10025G35KT 3500 SHRA FEW010CB SCT020 BKN040▲ Up
2S4419VHHH OMDB OMSJ▼ Dn
A33813CLEARED TO OMDB VIA PECAN V11 SURFA V11 IDOSI P901 IKELA A1 UBL Y20 BKK L301 MEPIP L301 BUSBO L505 EXOLU M638 KARKU L301 RASKI L301 RAGMA N571 VUSET A454 PASOV B540 MIVEK P574 IMPED. SQUAWK 2117.▲ Up
Q03712[LINK ACK]▲ Up
Q03712[LINK TEST]▼ Dn


AIRCRAFT HISTORY
FLIGHT DATE FLIGHT NO. ORIGIN DESTINATION CLEARED ROUTE BLOCK TIME FLIGHT TIME FUEL USED PILOT
2022-07-01FDX21VHHH OMDB VHHH PECAN LAXET SURFA IDOSI IKELA LENKO BUNTA BINKU KANGU DAN PATNO TANNA PAPRA BUTRA BAMBO UBL GRASO RAMBU RAMEI KRT UBLOD MALKI BKK PASTO TANEK DWI SADUS RINDA MABUR LEBIS URKOK DOGEM OLSOR POTAS VVZ MEPOK MEPIP BUSBO IBELA MELAX OPAKA KAMOL EXOLU KARKU ANKOX RASKI VAXIM RAGMA VUSET UMEKO BORER PASOV KUPMA ORKOB MIVEK IMPED OMDB7.6 hrs7.3 hrs133,039 lbAllan Burek